createdAt,value
2022-09-27T00:01:09.854Z,11.10
2022-09-27T00:03:36.864Z,11.10
2022-09-27T00:06:08.247Z,11.20
2022-09-27T00:08:36.225Z,11.10
2022-09-27T00:11:05.776Z,11.20
2022-09-27T00:13:33.051Z,11.10
2022-09-27T00:16:01.726Z,11.10
2022-09-27T00:18:28.441Z,11.10
2022-09-27T00:20:55.064Z,11.00
2022-09-27T00:23:21.688Z,11.00
2022-09-27T00:25:59.106Z,11.10
2022-09-27T00:28:26.317Z,11.20
2022-09-27T00:30:54.006Z,11.20
2022-09-27T00:33:20.960Z,11.10
2022-09-27T00:35:47.676Z,11.20
2022-09-27T00:38:14.747Z,11.20
2022-09-27T00:40:41.433Z,11.10
2022-09-27T00:43:17.830Z,11.10
2022-09-27T00:45:49.661Z,11.10
2022-09-27T00:48:21.245Z,11.20
2022-09-27T00:50:51.635Z,11.10
2022-09-27T00:53:21.473Z,11.00
2022-09-27T00:55:56.058Z,11.00
2022-09-27T00:58:28.492Z,11.10
2022-09-27T01:01:01.238Z,11.00
2022-09-27T01:04:05.608Z,11.00
2022-09-27T01:06:32.365Z,11.00
2022-09-27T01:08:59.249Z,11.10
2022-09-27T01:11:51.095Z,11.00
2022-09-27T01:14:36.025Z,10.90
2022-09-27T01:17:27.239Z,10.90
2022-09-27T01:20:13.846Z,11.00
2022-09-27T01:23:13.657Z,10.90
2022-09-27T01:25:49.353Z,10.90
2022-09-27T01:28:40.230Z,10.90
2022-09-27T01:31:16.146Z,10.80
2022-09-27T01:33:58.121Z,10.90
2022-09-27T01:37:01.970Z,10.90
2022-09-27T01:39:48.726Z,10.90
2022-09-27T01:42:23.893Z,10.80
2022-09-27T01:45:29.811Z,10.90
2022-09-27T01:48:03.272Z,10.80
2022-09-27T01:50:39.392Z,10.80
2022-09-27T01:53:12.301Z,10.90
2022-09-27T01:55:40.125Z,10.90
2022-09-27T01:58:19.703Z,11.00
2022-09-27T02:00:50.606Z,10.90
2022-09-27T02:03:21.559Z,11.00
2022-09-27T02:05:58.724Z,10.90
2022-09-27T02:08:58.131Z,10.90
2022-09-27T02:11:24.761Z,10.90
2022-09-27T02:14:03.143Z,10.90
2022-09-27T02:16:46.024Z,10.80
2022-09-27T02:19:48.507Z,10.80
2022-09-27T02:22:23.261Z,10.80
2022-09-27T02:25:07.994Z,10.90
2022-09-27T02:27:40.335Z,10.90
2022-09-27T02:30:11.782Z,10.80
2022-09-27T02:32:39.495Z,10.70
2022-09-27T02:35:13.845Z,10.70
2022-09-27T02:37:40.595Z,10.70
2022-09-27T02:40:07.589Z,10.70
2022-09-27T02:42:35.027Z,10.70
2022-09-27T02:45:04.008Z,10.80
2022-09-27T02:48:12.218Z,10.70
2022-09-27T02:51:00.883Z,10.70
2022-09-27T02:53:42.459Z,10.80
2022-09-27T02:56:25.019Z,10.80
2022-09-27T02:59:14.707Z,10.80
2022-09-27T03:02:15.179Z,10.80
2022-09-27T03:04:55.650Z,10.70
2022-09-27T03:07:23.023Z,10.80
2022-09-27T03:09:52.348Z,10.80
2022-09-27T03:12:22.653Z,10.80
2022-09-27T03:14:50.007Z,10.80
2022-09-27T03:17:17.119Z,10.70
2022-09-27T03:19:43.892Z,10.80
2022-09-27T03:22:10.519Z,10.80
2022-09-27T03:24:37.117Z,10.80
2022-09-27T03:27:04.254Z,10.70
2022-09-27T03:29:30.944Z,10.70
2022-09-27T03:31:57.721Z,10.70
2022-09-27T03:34:24.467Z,10.70
2022-09-27T03:36:51.483Z,10.70
2022-09-27T03:39:18.136Z,10.70
2022-09-27T03:41:44.753Z,10.70
2022-09-27T03:44:11.455Z,10.70
2022-09-27T03:46:38.277Z,10.70
2022-09-27T03:49:05.123Z,10.70
2022-09-27T03:51:31.775Z,10.60
2022-09-27T03:53:58.516Z,10.60
2022-09-27T03:56:25.252Z,10.60
2022-09-27T03:58:51.885Z,10.60
2022-09-27T04:01:18.804Z,10.60
2022-09-27T04:03:46.046Z,10.60
2022-09-27T04:06:13.541Z,10.60
2022-09-27T04:08:40.158Z,10.50
2022-09-27T04:11:07.570Z,10.60
2022-09-27T04:13:34.485Z,10.50
2022-09-27T04:16:02.936Z,10.50
2022-09-27T04:18:30.016Z,10.60
2022-09-27T04:20:56.649Z,10.60
2022-09-27T04:23:29.029Z,10.60
2022-09-27T04:25:56.647Z,10.60
2022-09-27T04:28:23.577Z,10.50
2022-09-27T04:30:50.702Z,10.50
2022-09-27T04:33:17.407Z,10.50
2022-09-27T04:36:03.069Z,10.50
2022-09-27T04:38:29.706Z,10.50
2022-09-27T04:40:56.845Z,10.50
2022-09-27T04:43:23.678Z,10.40
2022-09-27T04:45:50.395Z,10.40
2022-09-27T04:48:17.107Z,10.40
2022-09-27T04:50:43.816Z,10.50
2022-09-27T04:53:16.564Z,10.40
2022-09-27T04:55:47.331Z,10.40
2022-09-27T04:58:14.134Z,10.40
2022-09-27T05:00:42.838Z,10.40
2022-09-27T05:03:09.595Z,10.30
2022-09-27T05:05:36.242Z,10.30
2022-09-27T05:08:02.860Z,10.30
2022-09-27T05:10:29.471Z,10.30
2022-09-27T05:12:56.152Z,10.20
2022-09-27T05:15:23.061Z,10.20
2022-09-27T05:17:52.259Z,10.20
2022-09-27T05:20:19.413Z,10.20
2022-09-27T05:22:46.394Z,10.20
2022-09-27T05:25:13.212Z,10.10
2022-09-27T05:27:40.070Z,10.20
2022-09-27T05:30:08.227Z,10.10
2022-09-27T05:32:35.992Z,10.10
2022-09-27T05:35:02.598Z,10.00
2022-09-27T05:37:31.341Z,10.00
2022-09-27T05:39:57.961Z,10.00
2022-09-27T05:42:25.081Z,10.00
2022-09-27T05:44:52.275Z,10.00
2022-09-27T05:47:18.910Z,10.00
2022-09-27T05:49:45.528Z,9.90
2022-09-27T05:52:15.142Z,10.00
2022-09-27T05:54:43.930Z,10.00
2022-09-27T05:57:10.575Z,10.00
2022-09-27T05:59:37.185Z,10.00
2022-09-27T06:02:03.944Z,10.00
2022-09-27T06:04:30.620Z,10.00
2022-09-27T06:06:59.025Z,9.90
2022-09-27T06:09:27.378Z,9.90
2022-09-27T06:11:54.002Z,9.90
2022-09-27T06:14:20.881Z,9.90
2022-09-27T06:16:48.229Z,10.00
2022-09-27T06:19:15.413Z,10.00
2022-09-27T06:21:42.100Z,10.00
2022-09-27T06:24:08.826Z,9.90
2022-09-27T06:26:35.572Z,10.00
2022-09-27T06:29:02.220Z,9.90
2022-09-27T06:31:28.845Z,9.90
2022-09-27T06:33:55.441Z,9.90
2022-09-27T06:36:22.085Z,9.90
2022-09-27T06:38:49.130Z,10.00
2022-09-27T06:41:16.393Z,10.00
2022-09-27T06:43:43.002Z,10.00
2022-09-27T06:46:09.858Z,9.90
2022-09-27T06:48:38.440Z,9.90
2022-09-27T06:51:05.809Z,10.00
2022-09-27T06:53:32.508Z,9.90
2022-09-27T06:56:02.841Z,10.00
2022-09-27T06:58:48.304Z,10.00
2022-09-27T07:01:15.121Z,10.00
2022-09-27T07:03:43.118Z,10.00
2022-09-27T07:06:18.836Z,10.00
2022-09-27T07:08:45.547Z,10.10
2022-09-27T07:11:12.235Z,10.10
2022-09-27T07:13:42.790Z,10.10
2022-09-27T07:16:13.223Z,10.00
2022-09-27T07:18:41.048Z,10.00
2022-09-27T07:21:08.846Z,10.00
2022-09-27T07:23:37.095Z,10.10
2022-09-27T07:26:06.934Z,10.10
2022-09-27T07:28:34.624Z,10.20
2022-09-27T07:31:02.723Z,10.20
2022-09-27T07:33:30.877Z,10.20
2022-09-27T07:35:57.640Z,10.20
2022-09-27T07:38:24.605Z,10.20
2022-09-27T07:40:51.286Z,10.30
2022-09-27T07:43:19.456Z,10.30
2022-09-27T07:45:46.649Z,10.30
2022-09-27T07:48:15.570Z,10.30
2022-09-27T07:50:42.269Z,10.30
2022-09-27T07:53:12.672Z,10.30
2022-09-27T07:55:39.921Z,10.30
2022-09-27T07:58:11.420Z,10.30
2022-09-27T08:00:40.866Z,10.30
2022-09-27T08:03:10.211Z,10.40
2022-09-27T08:05:37.030Z,10.40
2022-09-27T08:08:04.881Z,10.40
2022-09-27T08:10:32.929Z,10.40
2022-09-27T08:13:03.444Z,10.40
2022-09-27T08:15:33.083Z,10.40
2022-09-27T08:17:59.772Z,10.40
2022-09-27T08:20:26.365Z,10.40
2022-09-27T08:22:53.293Z,10.40
2022-09-27T08:25:22.482Z,10.50
2022-09-27T08:27:57.211Z,10.50
2022-09-27T08:30:24.771Z,10.50
2022-09-27T08:32:58.991Z,10.50
2022-09-27T08:35:28.171Z,10.50
2022-09-27T08:37:59.961Z,10.50
2022-09-27T08:40:59.114Z,10.60
2022-09-27T08:43:28.915Z,10.60
2022-09-27T08:46:19.827Z,10.60
2022-09-27T08:48:53.385Z,10.60
2022-09-27T08:51:26.737Z,10.70
2022-09-27T08:54:29.115Z,10.70
2022-09-27T08:57:03.725Z,10.80
2022-09-27T08:59:54.872Z,10.80
2022-09-27T09:02:27.324Z,10.70
2022-09-27T09:04:59.947Z,10.70
2022-09-27T09:07:55.668Z,10.60
2022-09-27T09:11:11.754Z,10.60
2022-09-27T09:14:17.969Z,10.50
2022-09-27T09:16:52.588Z,10.50
2022-09-27T09:19:57.375Z,10.60
2022-09-27T09:22:48.773Z,10.70
2022-09-27T09:26:00.164Z,10.70
2022-09-27T09:28:31.675Z,10.70
2022-09-27T09:31:13.115Z,10.80
2022-09-27T09:33:58.015Z,10.80
2022-09-27T09:36:32.850Z,10.90
2022-09-27T09:39:05.543Z,10.90
2022-09-27T09:42:13.106Z,10.90
2022-09-27T09:44:58.623Z,11.00
2022-09-27T09:47:37.280Z,11.00
2022-09-27T09:50:16.101Z,11.00
2022-09-27T09:52:50.079Z,11.00
2022-09-27T09:55:28.613Z,11.00
2022-09-27T09:58:17.792Z,11.00
2022-09-27T10:00:47.868Z,11.00
2022-09-27T10:03:14.575Z,11.00
2022-09-27T10:05:44.157Z,11.10
2022-09-27T10:08:20.039Z,11.10
2022-09-27T10:10:47.120Z,11.10
2022-09-27T10:13:17.387Z,11.10
2022-09-27T10:15:51.513Z,11.20
2022-09-27T10:18:19.519Z,11.20
2022-09-27T10:20:55.687Z,11.30
2022-09-27T10:23:25.113Z,11.30
2022-09-27T10:25:58.482Z,11.40
2022-09-27T10:28:38.630Z,11.40
2022-09-27T10:31:13.421Z,11.40
2022-09-27T10:34:02.153Z,11.50
2022-09-27T10:36:34.977Z,11.60
2022-09-27T10:39:04.895Z,11.60
2022-09-27T10:41:37.046Z,11.60
2022-09-27T10:44:15.918Z,11.60
2022-09-27T10:46:44.649Z,11.70
2022-09-27T10:49:27.730Z,11.70
2022-09-27T10:52:01.030Z,11.70
2022-09-27T10:54:33.879Z,11.70
2022-09-27T10:57:26.556Z,11.90
2022-09-27T11:00:00.607Z,11.90
2022-09-27T11:02:39.742Z,11.90
2022-09-27T11:05:15.247Z,11.90
2022-09-27T11:07:57.102Z,12.10
2022-09-27T11:10:29.105Z,12.20
2022-09-27T11:13:15.400Z,12.50
2022-09-27T11:15:57.050Z,12.60
2022-09-27T11:18:42.625Z,12.60
2022-09-27T11:21:34.980Z,12.80
2022-09-27T11:24:22.713Z,12.70
2022-09-27T11:27:20.473Z,12.80
2022-09-27T11:30:16.123Z,12.70
2022-09-27T11:33:10.205Z,12.50
2022-09-27T11:35:51.693Z,12.20
2022-09-27T11:39:01.775Z,12.00
2022-09-27T11:42:06.007Z,11.70
2022-09-27T11:44:35.635Z,11.50
2022-09-27T11:47:22.988Z,11.50
2022-09-27T11:50:25.040Z,11.50
2022-09-27T11:53:00.277Z,11.50
2022-09-27T11:55:29.883Z,11.60
2022-09-27T11:58:15.871Z,11.60
2022-09-27T12:01:03.095Z,11.60
2022-09-27T12:03:38.502Z,11.60
2022-09-27T12:06:24.947Z,11.50
2022-09-27T12:09:04.515Z,11.40
2022-09-27T12:11:57.301Z,11.40
2022-09-27T12:14:44.074Z,11.30
2022-09-27T12:17:22.540Z,11.30
2022-09-27T12:19:58.722Z,11.30
2022-09-27T12:22:57.114Z,11.40
2022-09-27T12:25:21.277Z,11.40
2022-09-27T12:28:12.719Z,11.30
2022-09-27T12:30:44.763Z,11.40
2022-09-27T12:33:37.492Z,11.40
2022-09-27T12:36:14.302Z,11.50
2022-09-27T12:38:43.602Z,11.50
2022-09-27T12:41:13.983Z,11.60
2022-09-27T12:43:48.750Z,11.60
2022-09-27T12:46:34.851Z,11.70
2022-09-27T12:49:34.928Z,11.60
2022-09-27T12:52:08.571Z,11.60
2022-09-27T12:55:11.604Z,11.70
2022-09-27T12:58:24.591Z,11.90
2022-09-27T13:01:25.345Z,12.00
2022-09-27T13:04:04.514Z,12.00
2022-09-27T13:06:39.653Z,12.00
2022-09-27T13:09:37.633Z,12.10
2022-09-27T13:12:17.845Z,12.10
2022-09-27T13:15:02.816Z,12.10
2022-09-27T13:17:42.164Z,12.20
2022-09-27T13:20:36.739Z,12.10
2022-09-27T13:23:18.667Z,12.20
2022-09-27T13:25:58.108Z,12.20
2022-09-27T13:28:33.343Z,12.20
2022-09-27T13:31:04.417Z,12.20
2022-09-27T13:33:33.544Z,12.10
2022-09-27T13:36:21.645Z,12.10
2022-09-27T13:39:06.339Z,12.10
2022-09-27T13:41:44.984Z,12.00
2022-09-27T13:44:35.761Z,12.00
2022-09-27T13:47:19.039Z,12.10
2022-09-27T13:49:51.555Z,12.10
2022-09-27T13:52:36.203Z,12.10
2022-09-27T13:55:27.283Z,12.10
2022-09-27T13:58:03.318Z,12.20
2022-09-27T14:00:44.114Z,12.20
2022-09-27T14:03:24.870Z,12.30
2022-09-27T14:06:00.204Z,12.30
2022-09-27T14:08:32.758Z,12.10
2022-09-27T14:14:42.919Z,12.10
2022-09-27T14:17:10.522Z,12.10
2022-09-27T14:19:41.456Z,12.20
2022-09-27T14:22:15.890Z,12.20
2022-09-27T14:24:42.477Z,12.20
2022-09-27T14:27:25.814Z,12.20
2022-09-27T14:30:02.407Z,12.20
2022-09-27T14:32:37.754Z,12.10
2022-09-27T14:35:39.390Z,12.10
2022-09-27T14:38:35.877Z,12.10
2022-09-27T14:41:03.140Z,12.20
2022-09-27T14:43:32.967Z,12.20
2022-09-27T14:46:08.192Z,12.00
2022-09-27T14:48:40.051Z,12.10
2022-09-27T14:51:15.057Z,12.10
2022-09-27T14:53:50.444Z,12.00
2022-09-27T14:56:23.681Z,12.00
2022-09-27T14:58:56.469Z,12.00
2022-09-27T15:01:24.198Z,11.90
2022-09-27T15:03:52.579Z,11.90
2022-09-27T15:06:20.627Z,12.00
2022-09-27T15:08:49.370Z,11.90
2022-09-27T15:11:17.952Z,11.90
2022-09-27T15:13:46.425Z,11.90
2022-09-27T15:16:22.132Z,11.90
2022-09-27T15:19:17.527Z,11.90
2022-09-27T15:21:45.325Z,11.80
2022-09-27T15:24:38.776Z,11.90
2022-09-27T15:27:22.007Z,11.70
2022-09-27T15:29:51.468Z,11.70
2022-09-27T15:32:21.745Z,11.80
2022-09-27T15:34:48.408Z,11.80
2022-09-27T15:37:28.672Z,11.70
2022-09-27T15:39:55.398Z,11.70
2022-09-27T15:42:22.118Z,11.80
2022-09-27T15:44:48.733Z,11.80
2022-09-27T15:47:40.116Z,11.70
2022-09-27T15:50:15.794Z,11.80
2022-09-27T15:52:43.636Z,11.80
2022-09-27T15:55:14.525Z,11.90
2022-09-27T15:57:41.940Z,11.70
2022-09-27T16:00:18.460Z,11.60
2022-09-27T16:02:45.746Z,11.60
2022-09-27T16:05:13.090Z,11.60
2022-09-27T16:07:40.015Z,11.70
2022-09-27T16:10:30.684Z,11.70
2022-09-27T16:12:57.370Z,11.70
2022-09-27T16:15:24.208Z,11.70
2022-09-27T16:17:50.952Z,11.60
2022-09-27T16:20:26.442Z,11.60
2022-09-27T16:22:54.535Z,11.60
2022-09-27T16:25:22.389Z,11.70
2022-09-27T16:27:49.680Z,11.70
2022-09-27T16:30:17.124Z,11.70
2022-09-27T16:32:45.879Z,11.70
2022-09-27T16:35:14.114Z,11.70
2022-09-27T16:37:41.101Z,11.60
2022-09-27T16:40:09.510Z,11.60
2022-09-27T16:42:37.246Z,11.70
2022-09-27T16:45:10.351Z,11.60
2022-09-27T16:47:37.826Z,11.60
2022-09-27T16:50:24.134Z,11.50
2022-09-27T16:52:52.393Z,11.40
2022-09-27T16:55:20.926Z,11.40
2022-09-27T16:57:48.835Z,11.40
2022-09-27T17:00:16.641Z,11.30
2022-09-27T17:02:47.087Z,11.20
2022-09-27T17:05:14.694Z,11.00
2022-09-27T17:07:41.665Z,11.10
2022-09-27T17:10:08.994Z,11.10
2022-09-27T17:12:35.885Z,11.10
2022-09-27T17:15:02.582Z,11.10
2022-09-27T17:17:29.207Z,11.00
2022-09-27T17:19:55.849Z,11.10
2022-09-27T17:22:22.476Z,11.00
2022-09-27T17:24:49.192Z,11.00
2022-09-27T17:27:15.902Z,11.10
2022-09-27T17:29:42.554Z,11.20
2022-09-27T17:32:09.269Z,11.00
2022-09-27T17:34:36.440Z,10.90
2022-09-27T17:37:03.299Z,10.80
2022-09-27T17:39:29.905Z,10.70
2022-09-27T17:41:56.594Z,10.80
2022-09-27T17:44:23.871Z,10.60
2022-09-27T17:47:10.579Z,10.60
2022-09-27T17:49:55.914Z,10.60
2022-09-27T17:52:24.761Z,10.70
2022-09-27T17:54:54.306Z,10.70
2022-09-27T17:57:21.463Z,10.70
2022-09-27T17:59:48.162Z,10.70
2022-09-27T18:02:14.909Z,10.70
2022-09-27T18:04:41.717Z,10.50
2022-09-27T18:07:08.566Z,10.40
2022-09-27T18:09:36.329Z,10.50
2022-09-27T18:12:03.202Z,10.50
2022-09-27T18:14:29.912Z,10.40
2022-09-27T18:16:57.543Z,10.30
2022-09-27T18:19:24.594Z,10.30
2022-09-27T18:21:51.641Z,10.40
2022-09-27T18:24:18.399Z,10.20
2022-09-27T18:26:46.648Z,10.20
2022-09-27T18:29:15.555Z,10.30
2022-09-27T18:31:48.005Z,10.20
2022-09-27T18:34:16.545Z,10.30
2022-09-27T18:36:44.424Z,10.30
2022-09-27T18:39:19.003Z,10.20
2022-09-27T18:41:49.008Z,10.20
2022-09-27T18:44:17.059Z,10.20
2022-09-27T18:46:44.430Z,10.30
2022-09-27T18:49:13.400Z,10.30
2022-09-27T18:51:44.209Z,10.30
2022-09-27T18:54:19.596Z,10.20
2022-09-27T18:56:47.701Z,10.20
2022-09-27T18:59:15.045Z,10.10
2022-09-27T19:01:45.323Z,10.20
2022-09-27T19:04:21.589Z,10.20
2022-09-27T19:06:51.275Z,10.20
2022-09-27T19:09:18.323Z,10.20
2022-09-27T19:11:45.595Z,10.10
2022-09-27T19:14:16.726Z,10.10
2022-09-27T19:16:44.859Z,10.10
2022-09-27T19:19:11.518Z,10.10
2022-09-27T19:21:38.176Z,10.10
2022-09-27T19:24:04.929Z,10.10
2022-09-27T19:26:31.551Z,10.00
2022-09-27T19:28:58.871Z,10.00
2022-09-27T19:31:26.746Z,10.00
2022-09-27T19:33:58.920Z,10.00
2022-09-27T19:36:25.989Z,10.10
2022-09-27T19:38:53.495Z,10.00
2022-09-27T19:41:20.332Z,10.00
2022-09-27T19:43:51.932Z,10.00
2022-09-27T19:46:19.497Z,10.00
2022-09-27T19:48:47.351Z,10.00
2022-09-27T19:51:16.794Z,9.90
2022-09-27T19:53:43.622Z,10.00
2022-09-27T19:56:11.069Z,9.90
2022-09-27T19:58:39.346Z,9.90
2022-09-27T20:01:11.502Z,9.90
2022-09-27T20:03:40.656Z,9.90
2022-09-27T20:06:09.586Z,10.00
2022-09-27T20:08:36.203Z,10.00
2022-09-27T20:11:06.852Z,9.90
2022-09-27T20:13:34.835Z,9.90
2022-09-27T20:16:16.891Z,9.90
2022-09-27T20:18:48.777Z,9.90
2022-09-27T20:21:16.959Z,9.90
2022-09-27T20:23:44.455Z,9.90
2022-09-27T20:26:14.247Z,9.80
2022-09-27T20:28:43.238Z,9.80
2022-09-27T20:31:11.882Z,9.90
2022-09-27T20:33:41.562Z,9.80
2022-09-27T20:36:09.515Z,9.80
2022-09-27T20:38:36.207Z,9.90
2022-09-27T20:41:03.007Z,9.90
2022-09-27T20:43:31.539Z,9.70
2022-09-27T20:46:11.110Z,9.70
2022-09-27T20:48:38.418Z,9.70
2022-09-27T20:51:06.551Z,9.70
2022-09-27T20:53:34.340Z,9.70
2022-09-27T20:56:04.816Z,9.60
2022-09-27T20:58:32.604Z,9.60
2022-09-27T21:01:06.217Z,9.60
2022-09-27T21:03:34.400Z,9.60
2022-09-27T21:06:02.271Z,9.60
2022-09-27T21:08:30.681Z,9.40
2022-09-27T21:11:05.502Z,9.50
2022-09-27T21:13:32.267Z,9.40
2022-09-27T21:16:03.920Z,9.40
2022-09-27T21:18:31.064Z,9.30
2022-09-27T21:21:01.480Z,9.40
2022-09-27T21:23:29.802Z,9.40
2022-09-27T21:26:04.013Z,9.40
2022-09-27T21:28:53.817Z,9.40
2022-09-27T21:31:23.361Z,9.30
2022-09-27T21:33:55.435Z,9.20
2022-09-27T21:36:23.721Z,9.30
2022-09-27T21:38:50.979Z,9.30
2022-09-27T21:41:18.618Z,9.30
2022-09-27T21:43:47.674Z,9.30
2022-09-27T21:46:18.816Z,9.40
2022-09-27T21:48:47.606Z,9.30
2022-09-27T21:51:17.487Z,9.10
2022-09-27T21:53:50.336Z,9.20
2022-09-27T21:56:17.576Z,9.20
2022-09-27T21:58:44.374Z,9.20
2022-09-27T22:01:15.243Z,9.10
2022-09-27T22:03:43.542Z,9.10
2022-09-27T22:06:12.630Z,9.10
2022-09-27T22:08:39.766Z,9.10
2022-09-27T22:11:07.434Z,9.10
2022-09-27T22:13:34.895Z,9.20
2022-09-27T22:16:10.473Z,9.10
2022-09-27T22:18:37.851Z,9.10
2022-09-27T22:21:10.615Z,9.10
2022-09-27T22:23:38.383Z,9.10
2022-09-27T22:26:32.545Z,9.10
2022-09-27T22:28:59.602Z,9.10
2022-09-27T22:31:27.335Z,9.00
2022-09-27T22:33:55.191Z,9.00
2022-09-27T22:36:22.747Z,9.10
2022-09-27T22:38:50.183Z,9.20
2022-09-27T22:41:17.082Z,9.00
2022-09-27T22:43:44.151Z,9.00
2022-09-27T22:46:10.844Z,9.00
2022-09-27T22:48:37.591Z,9.00
2022-09-27T22:51:04.951Z,9.00
2022-09-27T22:53:32.528Z,9.00
2022-09-27T22:56:04.021Z,8.90
2022-09-27T22:58:31.826Z,8.80
2022-09-27T23:00:58.682Z,8.90
2022-09-27T23:03:25.566Z,8.90
2022-09-27T23:05:52.275Z,8.90
2022-09-27T23:08:18.904Z,9.00
2022-09-27T23:10:45.552Z,8.90
2022-09-27T23:13:12.193Z,8.90
2022-09-27T23:15:38.821Z,8.90
2022-09-27T23:18:06.430Z,9.00
2022-09-27T23:20:34.154Z,9.00
2022-09-27T23:23:00.853Z,9.00
2022-09-27T23:25:27.520Z,9.00
2022-09-27T23:27:54.301Z,9.00
2022-09-27T23:30:21.733Z,8.90
2022-09-27T23:32:58.259Z,8.90
2022-09-27T23:35:26.653Z,9.00
2022-09-27T23:37:57.751Z,9.00
2022-09-27T23:40:25.647Z,9.00
2022-09-27T23:42:52.400Z,8.90
2022-09-27T23:45:19.035Z,9.00
2022-09-27T23:47:45.664Z,9.00
2022-09-27T23:50:12.284Z,9.00
2022-09-27T23:52:38.900Z,9.00
2022-09-27T23:55:06.126Z,9.00
2022-09-27T23:57:32.803Z,8.90
2022-09-27T23:59:59.435Z,8.90
